Time;durP1;ratioP1;P1;durP2;ratioP2;P2;SDS_P1;SDS_P2;PMS_P1;PMS_P2;Temp;Humidity;BMP_temperature;BMP_pressure;BME280_temperature;BME280_humidity;BME280_pressure;Samples;Min_cycle;Max_cycle;Signal;HPM_P1;HPM_P2
2024/01/13 00:01:48;;;;;;;82.83;51.20;;;-2.70;99.90;;;;;;4898444;29;20456;-78
2024/01/13 00:04:15;;;;;;;67.97;47.63;;;-2.70;99.90;;;;;;4897922;29;20527;-78
2024/01/13 00:06:42;;;;;;;76.47;49.90;;;-2.70;99.90;;;;;;4905563;29;20476;-78
2024/01/13 00:09:10;;;;;;;78.93;49.43;;;-2.70;99.90;;;;;;4899378;29;20480;-78
2024/01/13 00:11:37;;;;;;;73.23;49.00;;;-2.70;99.90;;;;;;4897147;29;20512;-78
2024/01/13 00:14:05;;;;;;;88.40;51.37;;;-2.70;99.90;;;;;;4896730;29;20818;-78
2024/01/13 00:16:32;;;;;;;81.50;51.63;;;-2.70;99.90;;;;;;4897147;29;20885;-78
2024/01/13 00:19:00;;;;;;;78.87;49.60;;;-2.70;99.90;;;;;;4897990;29;20853;-78
2024/01/13 00:21:27;;;;;;;79.40;49.97;;;-2.70;99.90;;;;;;4897976;29;20449;-78
2024/01/13 00:23:54;;;;;;;75.23;46.67;;;-2.70;99.90;;;;;;4896179;29;21007;-78
2024/01/13 00:26:20;;;;;;;75.13;46.63;;;-2.70;99.90;;;;;;4897934;29;20643;-78
2024/01/13 00:28:47;;;;;;;75.93;48.97;;;-2.70;99.90;;;;;;4896658;29;20457;-78
2024/01/13 00:31:14;;;;;;;81.23;50.30;;;-2.70;99.90;;;;;;4896517;29;20453;-77
2024/01/13 00:33:43;;;;;;;86.03;49.37;;;-2.70;99.90;;;;;;4896403;29;20461;-78
2024/01/13 00:36:11;;;;;;;82.10;47.67;;;-2.70;99.90;;;;;;4896223;29;20548;-78
2024/01/13 00:38:38;;;;;;;85.60;51.27;;;-2.70;99.90;;;;;;4897451;29;20508;-78
2024/01/13 00:41:06;;;;;;;83.40;51.90;;;-2.70;99.90;;;;;;4897355;29;20481;-78
2024/01/13 00:43:33;;;;;;;78.30;48.60;;;-2.70;99.90;;;;;;4896228;29;20448;-78
2024/01/13 00:46:00;;;;;;;83.47;50.40;;;-2.70;99.90;;;;;;4896127;29;21012;-78
2024/01/13 00:48:26;;;;;;;72.47;48.77;;;-2.70;99.90;;;;;;4896115;29;20890;-78
2024/01/13 00:50:53;;;;;;;75.93;47.40;;;-2.70;99.90;;;;;;4896200;29;20460;-78
2024/01/13 00:53:21;;;;;;;69.77;46.80;;;-2.70;99.90;;;;;;4899721;29;20523;-78
2024/01/13 00:55:48;;;;;;;77.77;49.57;;;-2.80;99.90;;;;;;4893890;29;20495;-78
2024/01/13 00:58:16;;;;;;;77.50;48.63;;;-2.80;99.90;;;;;;4899441;29;20503;-78
2024/01/13 01:00:42;;;;;;;70.67;47.17;;;-2.80;99.90;;;;;;4897984;29;20537;-78
2024/01/13 01:03:09;;;;;;;69.60;46.80;;;-2.80;99.90;;;;;;4896945;29;20497;-78
2024/01/13 01:05:36;;;;;;;77.13;49.07;;;-2.80;99.90;;;;;;4896051;29;20465;-78
2024/01/13 01:08:03;;;;;;;70.33;47.20;;;-2.90;99.90;;;;;;4897105;29;20451;-78
2024/01/13 01:10:31;;;;;;;68.97;45.83;;;-2.90;99.90;;;;;;4896763;29;20456;-78
2024/01/13 01:12:58;;;;;;;72.23;46.83;;;-3.00;99.90;;;;;;4897095;29;20492;-77
2024/01/13 01:15:24;;;;;;;70.63;46.43;;;-3.00;99.90;;;;;;4897410;29;20840;-78
2024/01/13 01:17:51;;;;;;;70.80;46.07;;;-3.00;99.90;;;;;;4895809;29;20481;-77
2024/01/13 01:20:19;;;;;;;65.10;45.73;;;-3.00;99.90;;;;;;4889219;29;20449;-77
2024/01/13 01:22:46;;;;;;;66.13;45.73;;;-3.00;99.90;;;;;;4896134;29;20464;-78
2024/01/13 01:25:13;;;;;;;69.80;46.03;;;-3.00;99.90;;;;;;4895492;29;21232;-78
2024/01/13 01:27:41;;;;;;;61.47;43.07;;;-3.00;99.90;;;;;;4896981;29;20982;-78
2024/01/13 01:30:09;;;;;;;70.80;47.37;;;-3.00;99.90;;;;;;4896670;29;20445;-78
2024/01/13 01:32:35;;;;;;;72.10;45.17;;;-3.00;99.90;;;;;;4895745;29;20456;-77
2024/01/13 01:35:02;;;;;;;69.97;46.83;;;-3.10;99.90;;;;;;4895124;29;20453;-78
2024/01/13 01:37:29;;;;;;;68.00;45.30;;;-3.10;99.90;;;;;;4896728;29;20544;-78
2024/01/13 01:39:56;;;;;;;69.77;46.57;;;-3.10;99.90;;;;;;4894915;29;20509;-78
2024/01/13 01:42:22;;;;;;;71.77;45.67;;;-3.10;99.90;;;;;;4895843;29;20814;-78
2024/01/13 01:44:51;;;;;;;68.53;45.37;;;-3.10;99.90;;;;;;4896752;29;20779;-78
2024/01/13 01:47:19;;;;;;;70.67;44.87;;;-3.10;99.90;;;;;;4896630;29;20976;-78
2024/01/13 01:49:47;;;;;;;73.87;45.70;;;-3.10;99.90;;;;;;4897162;29;20448;-78
2024/01/13 01:52:14;;;;;;;76.07;45.60;;;-3.10;99.90;;;;;;4896709;29;20437;-78
2024/01/13 01:54:42;;;;;;;64.70;44.47;;;-3.10;99.90;;;;;;4896568;29;20448;-78
2024/01/13 01:57:11;;;;;;;67.07;43.07;;;-3.10;99.90;;;;;;4895234;29;20544;-78
2024/01/13 01:59:38;;;;;;;68.17;44.50;;;-3.10;99.90;;;;;;4895549;29;20521;-78
2024/01/13 02:02:08;;;;;;;65.33;43.73;;;-3.10;99.90;;;;;;4894967;29;20456;-78
2024/01/13 02:04:35;;;;;;;73.17;46.00;;;-3.20;99.90;;;;;;4896484;29;20440;-77
2024/01/13 02:07:02;;;;;;;67.37;45.30;;;-3.20;99.90;;;;;;4896331;29;20457;-78
2024/01/13 02:09:30;;;;;;;63.27;42.93;;;-3.20;99.90;;;;;;4896517;29;20491;-78
2024/01/13 02:11:57;;;;;;;64.07;43.33;;;-3.20;99.90;;;;;;4896325;29;20464;-77
2024/01/13 02:14:23;;;;;;;67.40;43.00;;;-3.10;99.90;;;;;;4900136;29;20449;-78
2024/01/13 02:16:51;;;;;;;68.30;44.93;;;-3.10;99.90;;;;;;4899177;29;20914;-78
2024/01/13 02:19:20;;;;;;;70.83;46.33;;;-3.10;99.90;;;;;;4898765;29;20461;-78
2024/01/13 02:21:48;;;;;;;63.03;43.40;;;-3.10;99.90;;;;;;4900537;29;20445;-78
2024/01/13 02:24:14;;;;;;;66.70;44.97;;;-3.10;99.90;;;;;;4899797;29;20444;-78
2024/01/13 02:26:41;;;;;;;67.83;44.60;;;-3.10;99.90;;;;;;4900116;29;20461;-78
2024/01/13 02:29:08;;;;;;;63.10;44.23;;;-3.10;99.90;;;;;;4899978;29;20475;-78
2024/01/13 02:31:35;;;;;;;62.97;43.57;;;-3.20;99.90;;;;;;4906370;29;20448;-78
2024/01/13 02:34:01;;;;;;;68.23;45.93;;;-3.30;99.90;;;;;;4899798;29;20481;-78
2024/01/13 02:36:28;;;;;;;62.43;41.40;;;-3.30;99.90;;;;;;4899955;29;20855;-78
2024/01/13 02:38:56;;;;;;;69.83;45.80;;;-3.30;99.90;;;;;;4898427;29;20448;-78
2024/01/13 02:41:23;;;;;;;71.53;43.03;;;-3.30;99.90;;;;;;4899998;29;20531;-77
2024/01/13 02:43:50;;;;;;;64.80;43.00;;;-3.30;99.90;;;;;;4899735;29;20452;-78
2024/01/13 02:46:17;;;;;;;62.10;42.40;;;-3.30;99.90;;;;;;4898415;29;20564;-78
2024/01/13 02:48:46;;;;;;;66.27;42.50;;;-3.20;99.90;;;;;;4898273;29;21027;-78
2024/01/13 02:51:15;;;;;;;61.07;43.03;;;-3.30;99.90;;;;;;4898314;29;20460;-78
2024/01/13 02:53:42;;;;;;;65.37;42.80;;;-3.30;99.90;;;;;;4898489;29;20924;-78
2024/01/13 02:56:10;;;;;;;68.00;45.00;;;-3.30;99.90;;;;;;4899469;29;20559;-78
2024/01/13 02:58:37;;;;;;;64.77;43.37;;;-3.40;99.90;;;;;;4898436;29;20532;-78
2024/01/13 03:01:06;;;;;;;61.33;42.60;;;-3.40;99.90;;;;;;4899729;29;20473;-78
2024/01/13 03:03:34;;;;;;;59.67;40.00;;;-3.30;99.90;;;;;;4897779;29;20456;-78
2024/01/13 03:06:01;;;;;;;63.57;42.87;;;-3.30;99.90;;;;;;4898245;29;20956;-77
2024/01/13 03:08:28;;;;;;;58.30;41.57;;;-3.40;99.90;;;;;;4899242;29;20460;-78
2024/01/13 03:10:54;;;;;;;62.73;42.60;;;-3.40;99.90;;;;;;4899216;29;20460;-78
2024/01/13 03:13:22;;;;;;;67.10;44.07;;;-3.40;99.90;;;;;;4899217;29;20444;-78
2024/01/13 03:15:49;;;;;;;64.37;43.47;;;-3.40;99.90;;;;;;4899879;29;20988;-78
2024/01/13 03:18:16;;;;;;;60.47;42.03;;;-3.40;99.90;;;;;;4899011;29;20520;-77
2024/01/13 03:20:43;;;;;;;61.17;41.93;;;-3.50;99.90;;;;;;4899220;29;20445;-77
2024/01/13 03:23:10;;;;;;;57.80;41.67;;;-3.50;99.90;;;;;;4897134;29;20461;-78
2024/01/13 03:25:36;;;;;;;65.03;43.50;;;-3.50;99.90;;;;;;4897892;29;21802;-78
2024/01/13 03:28:03;;;;;;;57.97;41.33;;;-3.50;99.90;;;;;;4905820;29;20488;-78
2024/01/13 03:30:31;;;;;;;71.17;45.60;;;-3.40;99.90;;;;;;4903550;29;20463;-78
2024/01/13 03:32:58;;;;;;;64.33;41.90;;;-3.50;99.90;;;;;;4897683;29;20956;-77
2024/01/13 03:35:25;;;;;;;72.17;46.23;;;-3.50;99.90;;;;;;4898494;29;20870;-78
2024/01/13 03:37:52;;;;;;;67.03;41.33;;;-3.50;99.90;;;;;;4899123;29;20987;-78
2024/01/13 03:40:19;;;;;;;71.37;43.67;;;-3.50;99.90;;;;;;4897635;29;20452;-78
2024/01/13 03:42:46;;;;;;;65.53;43.40;;;-3.50;99.90;;;;;;4899301;29;20967;-78
2024/01/13 03:45:13;;;;;;;73.87;46.57;;;-3.50;99.90;;;;;;4898931;29;20489;-78
2024/01/13 03:47:41;;;;;;;74.87;45.27;;;-3.50;99.90;;;;;;4897843;29;20469;-78
2024/01/13 03:50:09;;;;;;;74.80;46.17;;;-3.50;99.90;;;;;;4898770;29;20440;-77
2024/01/13 03:52:36;;;;;;;72.47;45.23;;;-3.40;99.90;;;;;;4898702;29;20445;-78
2024/01/13 03:55:03;;;;;;;64.83;42.47;;;-3.40;99.90;;;;;;4905745;29;20512;-78
2024/01/13 03:57:29;;;;;;;72.33;45.23;;;-3.40;99.90;;;;;;4901327;29;20483;-78
2024/01/13 03:59:56;;;;;;;80.17;45.10;;;-3.40;99.90;;;;;;4902902;29;20453;-78
2024/01/13 04:02:24;;;;;;;65.73;44.37;;;-3.40;99.90;;;;;;4898799;29;20964;-78
2024/01/13 04:04:53;;;;;;;74.97;45.03;;;-3.40;99.90;;;;;;4898520;29;20463;-83
2024/01/13 04:07:19;;;;;;;70.20;42.37;;;-3.40;99.90;;;;;;4902496;29;20473;-81
2024/01/13 04:09:46;;;;;;;74.53;46.33;;;-3.40;99.90;;;;;;4897605;29;20472;-78
2024/01/13 04:12:14;;;;;;;69.60;44.77;;;-3.40;99.90;;;;;;4888930;29;20533;-78
2024/01/13 04:14:41;;;;;;;78.53;45.90;;;-3.50;99.90;;;;;;4891708;29;20465;-78
2024/01/13 04:17:08;;;;;;;69.00;42.50;;;-3.50;99.90;;;;;;4896477;29;20481;-78
2024/01/13 04:19:34;;;;;;;82.27;46.00;;;-3.50;99.90;;;;;;4888699;29;20437;-78
2024/01/13 04:22:03;;;;;;;79.17;45.70;;;-3.50;99.90;;;;;;4901143;29;20969;-79
2024/01/13 04:24:29;;;;;;;79.87;47.40;;;-3.40;99.90;;;;;;4887029;29;20488;-78
2024/01/13 04:26:56;;;;;;;76.37;45.00;;;-3.40;99.90;;;;;;4893969;29;21070;-79
2024/01/13 04:29:23;;;;;;;72.23;45.17;;;-3.40;99.90;;;;;;4897722;29;20816;-78
2024/01/13 04:31:50;;;;;;;78.30;44.97;;;-3.40;99.90;;;;;;4891931;29;20953;-78
2024/01/13 04:34:16;;;;;;;69.97;43.20;;;-3.40;99.90;;;;;;4888188;29;20449;-78
2024/01/13 04:36:43;;;;;;;78.03;45.10;;;-3.30;99.90;;;;;;4891594;29;20465;-78
2024/01/13 04:39:11;;;;;;;69.90;43.87;;;-3.40;99.90;;;;;;4891553;29;20494;-78
2024/01/13 04:41:41;;;;;;;70.43;44.03;;;-3.40;99.90;;;;;;4893980;29;21027;-79
2024/01/13 04:44:08;;;;;;;71.83;45.73;;;-3.50;99.90;;;;;;4894678;29;20452;-78
2024/01/13 04:46:35;;;;;;;69.73;43.70;;;-3.50;99.90;;;;;;4890654;29;20469;-78
2024/01/13 04:49:02;;;;;;;69.00;45.17;;;-3.60;99.90;;;;;;4893607;29;20452;-78
2024/01/13 04:51:29;;;;;;;69.17;43.13;;;-3.60;99.90;;;;;;4894650;29;20459;-78
2024/01/13 04:53:56;;;;;;;64.47;42.27;;;-3.60;99.90;;;;;;4890866;29;20514;-78
2024/01/13 04:56:24;;;;;;;66.60;41.83;;;-3.60;99.90;;;;;;4895175;29;20468;-78
2024/01/13 04:58:52;;;;;;;66.27;44.10;;;-3.60;99.90;;;;;;4894294;29;20484;-78
2024/01/13 05:01:19;;;;;;;69.73;43.17;;;-3.60;99.90;;;;;;4889075;29;20500;-78
2024/01/13 05:03:46;;;;;;;69.97;42.60;;;-3.70;99.90;;;;;;4890988;29;20493;-78
2024/01/13 05:06:15;;;;;;;65.03;41.80;;;-3.60;99.90;;;;;;4893892;29;20470;-79
2024/01/13 05:08:42;;;;;;;62.07;40.73;;;-3.70;99.90;;;;;;4908731;29;20829;-78
2024/01/13 05:11:09;;;;;;;66.77;41.60;;;-3.70;99.90;;;;;;4891598;29;20458;-78
2024/01/13 05:13:37;;;;;;;61.53;41.57;;;-3.80;99.90;;;;;;4895018;29;20960;-79
2024/01/13 05:16:04;;;;;;;52.90;38.30;;;-3.70;99.90;;;;;;4892117;29;20477;-78
2024/01/13 05:18:31;;;;;;;59.60;39.67;;;-3.80;99.90;;;;;;4892638;29;21231;-78
2024/01/13 05:20:58;;;;;;;63.37;40.63;;;-3.80;99.90;;;;;;4890357;29;20474;-78
2024/01/13 05:23:24;;;;;;;61.47;39.73;;;-3.80;99.90;;;;;;4890012;29;20485;-78
2024/01/13 05:25:51;;;;;;;66.97;42.87;;;-3.70;99.90;;;;;;4893769;29;20532;-78
2024/01/13 05:28:19;;;;;;;62.90;40.87;;;-3.70;99.90;;;;;;4896670;29;20433;-77
2024/01/13 05:30:47;;;;;;;64.77;41.13;;;-3.80;99.90;;;;;;4893685;29;20449;-78
2024/01/13 05:33:13;;;;;;;63.77;42.17;;;-3.80;99.90;;;;;;4892765;29;21189;-78
2024/01/13 05:35:45;;;;;;;57.53;40.33;;;-3.90;99.90;;;;;;4889939;29;20457;-81
2024/01/13 05:38:12;;;;;;;66.73;41.37;;;-3.90;99.90;;;;;;4897434;29;20481;-77
2024/01/13 05:40:40;;;;;;;71.00;43.33;;;-4.00;99.90;;;;;;4898015;29;20952;-77
2024/01/13 05:43:08;;;;;;;66.37;41.27;;;-4.00;99.90;;;;;;4898280;29;21112;-77
2024/01/13 05:45:35;;;;;;;65.07;41.87;;;-4.00;99.90;;;;;;4897722;29;20452;-78
2024/01/13 05:48:03;;;;;;;70.07;42.87;;;-4.00;99.90;;;;;;4897080;29;20464;-77
2024/01/13 05:50:30;;;;;;;69.43;42.60;;;-4.00;99.90;;;;;;4896823;29;20496;-78
2024/01/13 05:52:57;;;;;;;62.00;40.70;;;-4.00;99.90;;;;;;4901749;29;20456;-78
2024/01/13 05:55:24;;;;;;;58.90;39.17;;;-4.00;99.90;;;;;;4899186;29;20456;-77
2024/01/13 05:57:52;;;;;;;80.57;44.27;;;-4.00;99.90;;;;;;4895667;29;20515;-78
2024/01/13 06:00:19;;;;;;;69.27;41.83;;;-4.00;99.90;;;;;;4896897;29;20441;-77
2024/01/13 06:02:46;;;;;;;67.63;43.07;;;-4.00;99.90;;;;;;4889348;29;20532;-78
2024/01/13 06:05:14;;;;;;;61.77;39.23;;;-3.90;99.90;;;;;;4897285;29;20437;-78
2024/01/13 06:07:41;;;;;;;73.10;41.93;;;-3.90;99.90;;;;;;4895011;29;20469;-78
2024/01/13 06:10:08;;;;;;;66.43;40.50;;;-3.90;99.90;;;;;;4895679;29;20995;-78
2024/01/13 06:12:35;;;;;;;63.27;41.27;;;-3.90;99.90;;;;;;4895097;29;20461;-78
2024/01/13 06:15:01;;;;;;;60.67;39.03;;;-3.90;99.90;;;;;;4896554;29;20452;-78
2024/01/13 06:17:28;;;;;;;65.77;39.93;;;-3.90;99.90;;;;;;4894970;29;20507;-78
2024/01/13 06:19:55;;;;;;;66.43;42.93;;;-4.00;99.90;;;;;;4897343;29;20441;-77
2024/01/13 06:22:23;;;;;;;66.50;41.07;;;-3.90;99.90;;;;;;4897237;29;20948;-78
2024/01/13 06:24:50;;;;;;;69.53;40.97;;;-4.00;99.90;;;;;;4897135;29;20482;-80
2024/01/13 06:27:17;;;;;;;67.53;41.43;;;-4.00;99.90;;;;;;4897655;29;20481;-80
2024/01/13 06:29:43;;;;;;;72.97;42.27;;;-4.10;99.90;;;;;;4896927;29;20480;-79
2024/01/13 06:32:10;;;;;;;66.60;40.47;;;-4.10;99.90;;;;;;4895690;29;20465;-78
2024/01/13 06:34:39;;;;;;;71.73;41.00;;;-4.10;99.90;;;;;;4898507;29;20496;-79
2024/01/13 06:37:06;;;;;;;66.30;40.73;;;-4.10;99.90;;;;;;4896255;29;20910;-81
2024/01/13 06:39:34;;;;;;;66.17;42.90;;;-4.20;99.90;;;;;;4894417;29;20477;-82
2024/01/13 06:42:02;;;;;;;66.83;41.87;;;-4.20;99.90;;;;;;4897825;29;20444;-80
2024/01/13 06:44:29;;;;;;;59.53;39.37;;;-4.20;99.90;;;;;;4896890;29;20814;-80
2024/01/13 06:46:56;;;;;;;71.60;41.33;;;-4.20;99.90;;;;;;4896306;29;20475;-81
2024/01/13 06:49:23;;;;;;;61.20;40.50;;;-4.10;99.90;;;;;;4897735;29;20452;-81
2024/01/13 06:51:50;;;;;;;65.67;40.90;;;-4.20;99.90;;;;;;4904486;29;20444;-77
2024/01/13 06:54:16;;;;;;;61.37;39.57;;;-4.20;99.90;;;;;;4897146;29;20453;-79
2024/01/13 06:56:45;;;;;;;65.90;40.43;;;-4.20;99.90;;;;;;4899252;29;20507;-79
2024/01/13 06:59:12;;;;;;;67.47;43.20;;;-4.20;99.90;;;;;;4898167;29;20480;-78
2024/01/13 07:01:38;;;;;;;61.37;40.53;;;-4.20;99.90;;;;;;4899916;29;20509;-80
2024/01/13 07:04:05;;;;;;;67.37;41.27;;;-4.20;99.90;;;;;;4898335;29;20595;-79
2024/01/13 07:06:32;;;;;;;58.87;38.83;;;-4.20;99.90;;;;;;4899703;29;20544;-79
2024/01/13 07:08:59;;;;;;;74.23;42.60;;;-4.10;99.90;;;;;;4906631;29;20512;-79
2024/01/13 07:11:27;;;;;;;76.40;42.03;;;-4.10;99.90;;;;;;4899282;29;20441;-79
2024/01/13 07:13:55;;;;;;;65.90;41.23;;;-4.10;99.90;;;;;;4907333;29;20453;-79
2024/01/13 07:16:22;;;;;;;64.07;39.70;;;-4.10;99.90;;;;;;4898492;29;20497;-79
2024/01/13 07:18:48;;;;;;;67.23;40.07;;;-4.10;99.90;;;;;;4897815;29;20481;-78
2024/01/13 07:21:15;;;;;;;59.47;41.27;;;-4.20;99.90;;;;;;4899841;29;20437;-79
2024/01/13 07:23:43;;;;;;;59.93;40.13;;;-4.20;99.90;;;;;;4898921;29;20449;-79
2024/01/13 07:26:10;;;;;;;60.00;39.77;;;-4.20;99.90;;;;;;4899610;29;20499;-78
2024/01/13 07:28:40;;;;;;;60.67;39.13;;;-4.10;99.90;;;;;;4907012;29;20449;-78
2024/01/13 07:31:09;;;;;;;62.60;40.50;;;-4.10;99.90;;;;;;4899944;29;20488;-80
2024/01/13 07:33:35;;;;;;;59.20;39.27;;;-4.10;99.90;;;;;;4895319;29;20509;-79
2024/01/13 07:36:03;;;;;;;65.73;42.60;;;-4.10;99.90;;;;;;4897405;29;21055;-80
2024/01/13 07:38:30;;;;;;;63.13;39.70;;;-4.00;99.90;;;;;;4898740;29;20476;-79
2024/01/13 07:40:56;;;;;;;65.17;41.70;;;-4.00;99.90;;;;;;4897509;29;20480;-80
2024/01/13 07:43:23;;;;;;;60.23;37.13;;;-4.00;99.90;;;;;;4897503;29;20453;-79
2024/01/13 07:45:50;;;;;;;68.67;40.53;;;-4.00;99.90;;;;;;4894134;29;20480;-79
2024/01/13 07:48:18;;;;;;;75.53;42.70;;;-4.00;99.90;;;;;;4909099;29;20477;-80
2024/01/13 07:50:45;;;;;;;62.07;38.03;;;-4.00;99.90;;;;;;4897165;29;20987;-78
2024/01/13 07:53:12;;;;;;;57.03;37.10;;;-4.00;99.90;;;;;;4897245;29;20989;-78
2024/01/13 07:55:38;;;;;;;67.57;40.53;;;-4.00;99.90;;;;;;4897592;29;20453;-79
2024/01/13 07:58:05;;;;;;;66.43;40.03;;;-4.00;99.90;;;;;;4898491;29;20441;-80
2024/01/13 08:00:32;;;;;;;59.90;37.30;;;-4.00;99.90;;;;;;4898452;29;20508;-80
2024/01/13 08:02:59;;;;;;;59.27;38.70;;;-3.90;99.90;;;;;;4899546;29;20457;-79
2024/01/13 08:05:27;;;;;;;70.60;39.73;;;-3.90;99.90;;;;;;4897236;29;20453;-80
2024/01/13 08:07:54;;;;;;;61.17;40.17;;;-3.90;99.90;;;;;;4898213;29;20449;-80
2024/01/13 08:10:21;;;;;;;63.30;39.07;;;-3.90;99.90;;;;;;4895846;29;20548;-80
2024/01/13 08:12:47;;;;;;;61.93;37.33;;;-3.90;99.90;;;;;;4897704;29;20451;-79
2024/01/13 08:15:24;;;;;;;63.73;39.73;;;-3.90;99.90;;;;;;4898048;29;20481;-80
2024/01/13 08:17:51;;;;;;;64.17;38.67;;;-4.00;99.90;;;;;;4897573;29;20459;-79
2024/01/13 08:20:18;;;;;;;66.90;39.70;;;-4.00;99.90;;;;;;4894804;29;20485;-79
2024/01/13 08:22:48;;;;;;;59.97;39.37;;;-4.00;99.90;;;;;;4895560;29;20824;-79
2024/01/13 08:25:15;;;;;;;61.07;37.90;;;-4.00;99.90;;;;;;4894401;29;20454;-79
2024/01/13 08:27:41;;;;;;;67.93;39.90;;;-4.00;99.90;;;;;;4895145;29;20534;-80
2024/01/13 08:30:09;;;;;;;59.03;38.67;;;-4.00;99.90;;;;;;4893666;29;20441;-79
2024/01/13 08:32:39;;;;;;;59.73;37.57;;;-4.00;99.90;;;;;;4892571;29;20449;-86
2024/01/13 08:35:13;;;;;;;59.93;37.70;;;-4.00;99.90;;;;;;4897613;29;20449;-82
2024/01/13 08:37:40;;;;;;;66.83;37.87;;;-4.00;99.90;;;;;;4893604;29;20479;-80
2024/01/13 08:40:09;;;;;;;57.33;35.93;;;-3.90;99.90;;;;;;4891158;29;20512;-78
2024/01/13 08:42:37;;;;;;;61.33;37.43;;;-3.80;99.90;;;;;;4895026;29;20472;-78
2024/01/13 08:45:05;;;;;;;61.33;38.80;;;-3.80;99.90;;;;;;4892398;29;20445;-79
2024/01/13 08:47:32;;;;;;;61.90;38.33;;;-3.80;99.90;;;;;;4892535;29;20469;-78
2024/01/13 08:49:58;;;;;;;63.90;38.67;;;-3.70;99.90;;;;;;4891089;29;20436;-78
2024/01/13 08:52:25;;;;;;;61.93;37.67;;;-3.70;99.90;;;;;;4889121;29;20915;-77
2024/01/13 08:54:52;;;;;;;64.97;38.50;;;-3.70;99.90;;;;;;4889606;29;20454;-78
2024/01/13 08:57:20;;;;;;;59.13;34.97;;;-3.70;99.90;;;;;;4896216;29;20508;-78
2024/01/13 08:59:49;;;;;;;61.10;37.83;;;-3.70;99.90;;;;;;4896791;29;20828;-82
2024/01/13 09:02:16;;;;;;;64.17;37.43;;;-3.70;99.90;;;;;;4896008;29;20441;-79
2024/01/13 09:04:43;;;;;;;66.90;38.50;;;-3.70;99.90;;;;;;4895642;29;20468;-78
2024/01/13 09:07:10;;;;;;;64.50;38.90;;;-3.60;99.90;;;;;;4901245;29;20492;-79
2024/01/13 09:09:37;;;;;;;63.57;39.07;;;-3.60;99.90;;;;;;4903036;29;20471;-79
2024/01/13 09:12:07;;;;;;;61.13;36.97;;;-3.60;99.90;;;;;;4903347;29;20454;-84
2024/01/13 09:14:46;;;;;;;66.07;38.10;;;-3.60;99.90;;;;;;4899251;29;20445;-80
2024/01/13 09:17:16;;;;;;;55.30;35.97;;;-3.60;99.90;;;;;;4905787;29;20478;-81
2024/01/13 09:19:43;;;;;;;56.10;35.60;;;-3.60;99.90;;;;;;4898015;29;20472;-79
2024/01/13 09:22:10;;;;;;;52.90;34.77;;;-3.60;99.90;;;;;;4896762;29;20448;-79
2024/01/13 09:24:36;;;;;;;57.27;35.20;;;-3.50;99.90;;;;;;4897187;29;20540;-83
2024/01/13 09:27:04;;;;;;;64.30;38.83;;;-3.50;99.90;;;;;;4898196;29;20472;-82
2024/01/13 09:29:31;;;;;;;55.67;36.47;;;-3.50;99.90;;;;;;4898970;29;20434;-83
2024/01/13 09:31:59;;;;;;;52.17;35.77;;;-3.40;99.90;;;;;;4912906;29;20503;-82
2024/01/13 09:34:26;;;;;;;59.37;37.50;;;-3.40;99.90;;;;;;4893680;29;20441;-78
2024/01/13 09:36:53;;;;;;;59.93;37.70;;;-3.30;99.90;;;;;;4897069;29;20456;-80
2024/01/13 09:39:20;;;;;;;46.90;33.50;;;-3.30;99.90;;;;;;4895315;29;20477;-79
2024/01/13 09:41:48;;;;;;;59.33;36.30;;;-3.20;99.90;;;;;;4902984;29;20457;-79
2024/01/13 09:44:21;;;;;;;56.80;36.03;;;-3.10;99.90;;;;;;4897607;29;20478;-79
2024/01/13 09:46:49;;;;;;;56.13;37.70;;;-3.10;99.90;;;;;;4895557;29;20533;-79
2024/01/13 09:49:18;;;;;;;48.73;35.33;;;-3.00;99.90;;;;;;4895615;29;20498;-78
2024/01/13 09:51:46;;;;;;;49.77;35.13;;;-3.00;99.90;;;;;;4895279;29;20961;-79
2024/01/13 09:54:15;;;;;;;55.00;37.40;;;-2.90;99.90;;;;;;4896496;29;20856;-79
2024/01/13 09:56:46;;;;;;;50.53;35.43;;;-2.80;99.90;;;;;;4894645;29;20477;-79
2024/01/13 09:59:13;;;;;;;53.27;35.47;;;-2.80;99.90;;;;;;4892431;29;20474;-80
2024/01/13 10:01:40;;;;;;;54.20;35.03;;;-2.80;99.90;;;;;;4894983;29;20488;-82
2024/01/13 10:04:08;;;;;;;50.83;35.80;;;-2.80;99.90;;;;;;4908096;29;20469;-82
2024/01/13 10:06:37;;;;;;;58.33;36.53;;;-2.80;99.90;;;;;;4896236;29;20465;-82
2024/01/13 10:09:04;;;;;;;63.17;39.47;;;-2.70;99.90;;;;;;4888416;29;20457;-81
2024/01/13 10:11:31;;;;;;;56.37;36.63;;;-2.60;99.90;;;;;;4898370;29;20441;-78
2024/01/13 10:13:59;;;;;;;61.33;38.60;;;-2.60;99.90;;;;;;4897069;29;20472;-80
2024/01/13 10:16:28;;;;;;;67.57;39.80;;;-2.60;99.90;;;;;;4897039;29;21047;-85
2024/01/13 10:19:00;;;;;;;65.67;40.43;;;-2.60;99.90;;;;;;4898908;29;20481;-85
2024/01/13 10:21:32;;;;;;;62.07;37.20;;;-2.60;99.90;;;;;;4902102;29;20449;-77
2024/01/13 10:24:01;;;;;;;66.77;39.63;;;-2.60;99.90;;;;;;4893869;29;20478;-81
2024/01/13 10:26:30;;;;;;;70.40;41.00;;;-2.50;99.90;;;;;;4900147;29;21019;-81
2024/01/13 10:28:57;;;;;;;62.70;39.40;;;-2.50;99.90;;;;;;4897342;29;20453;-79
2024/01/13 10:31:25;;;;;;;66.13;39.97;;;-2.40;99.90;;;;;;4896426;29;20544;-80
2024/01/13 10:33:52;;;;;;;68.63;39.83;;;-2.40;99.90;;;;;;4896958;29;20460;-79
2024/01/13 10:36:22;;;;;;;62.03;40.10;;;-2.40;99.90;;;;;;4899786;29;20499;-80
2024/01/13 10:38:50;;;;;;;64.63;38.87;;;-2.40;99.90;;;;;;4897378;29;20520;-80
2024/01/13 10:41:23;;;;;;;68.53;39.10;;;-2.30;99.90;;;;;;4900079;29;20942;-80
2024/01/13 10:43:55;;;;;;;60.43;39.90;;;-2.30;99.90;;;;;;4898423;29;20488;-80
2024/01/13 10:46:24;;;;;;;57.47;36.30;;;-2.40;99.90;;;;;;4900016;29;20595;-80
2024/01/13 10:48:55;;;;;;;64.27;37.40;;;-2.40;99.90;;;;;;4901129;29;20445;-80
2024/01/13 10:51:28;;;;;;;52.33;34.30;;;-2.40;99.90;;;;;;4898649;29;20509;-79
2024/01/13 10:53:59;;;;;;;62.63;38.83;;;-2.40;99.90;;;;;;4899331;29;20467;-79
2024/01/13 10:56:28;;;;;;;63.40;38.90;;;-2.40;99.90;;;;;;4897333;29;20560;-79
2024/01/13 10:58:55;;;;;;;52.10;36.73;;;-2.40;99.90;;;;;;4899234;29;20449;-79
2024/01/13 11:01:22;;;;;;;52.53;34.87;;;-2.40;99.90;;;;;;4899586;29;20437;-79
2024/01/13 11:03:51;;;;;;;50.00;34.50;;;-2.30;99.90;;;;;;4899278;29;20445;-79
2024/01/13 11:06:18;;;;;;;42.70;31.30;;;-2.30;99.90;;;;;;4897635;29;20472;-79
2024/01/13 11:08:46;;;;;;;54.73;34.60;;;-2.20;99.90;;;;;;4898619;29;21156;-79
2024/01/13 11:11:17;;;;;;;58.37;35.13;;;-2.30;99.90;;;;;;4900073;29;20466;-80
2024/01/13 11:13:51;;;;;;;51.43;34.53;;;-2.30;99.90;;;;;;4898571;29;21040;-80
2024/01/13 11:16:22;;;;;;;51.73;34.33;;;-2.40;99.90;;;;;;4898526;29;21086;-79
2024/01/13 11:18:51;;;;;;;54.80;34.57;;;-2.50;99.90;;;;;;4900101;29;20505;-80
2024/01/13 11:21:19;;;;;;;54.70;34.73;;;-2.50;99.90;;;;;;4899693;29;20437;-80
2024/01/13 11:23:47;;;;;;;50.77;34.73;;;-2.40;99.90;;;;;;4898784;29;20449;-80
2024/01/13 11:26:17;;;;;;;53.73;34.47;;;-2.40;99.90;;;;;;4897677;29;20521;-79
2024/01/13 11:28:48;;;;;;;50.73;32.80;;;-2.30;99.90;;;;;;4898048;29;20449;-79
2024/01/13 11:31:39;;;;;;;51.63;34.03;;;-2.20;99.90;;;;;;4898580;29;20452;-80
2024/01/13 11:34:08;;;;;;;49.37;33.33;;;-2.10;99.90;;;;;;4897336;29;20870;-80
2024/01/13 11:36:36;;;;;;;52.83;33.87;;;-2.10;99.90;;;;;;4897960;29;20483;-80
2024/01/13 11:39:03;;;;;;;51.07;33.83;;;-2.10;99.90;;;;;;4898219;29;21096;-79
2024/01/13 11:41:46;;;;;;;48.07;33.87;;;-2.00;99.90;;;;;;4898840;29;20433;-80
2024/01/13 11:44:35;;;;;;;50.33;34.57;;;-2.00;99.90;;;;;;4898719;29;20449;-78
2024/01/13 11:47:05;;;;;;;52.83;32.83;;;-2.00;99.90;;;;;;4903743;29;20470;-80
2024/01/13 11:49:33;;;;;;;47.10;33.20;;;-2.10;99.90;;;;;;4899688;29;20452;-80
2024/01/13 11:52:01;;;;;;;48.77;31.23;;;-2.10;99.90;;;;;;4901518;29;20453;-79
2024/01/13 11:54:29;;;;;;;51.93;32.87;;;-2.10;99.90;;;;;;4907659;29;20987;-79
2024/01/13 11:56:57;;;;;;;47.63;32.40;;;-2.10;99.90;;;;;;4898628;29;20472;-78
2024/01/13 11:59:25;;;;;;;48.07;33.23;;;-2.10;99.90;;;;;;4902388;29;20531;-79
2024/01/13 12:01:54;;;;;;;51.90;35.97;;;-2.00;99.90;;;;;;4902239;29;21061;-80
2024/01/13 12:04:21;;;;;;;54.37;35.80;;;-2.00;99.90;;;;;;4898395;29;20493;-79
2024/01/13 12:06:49;;;;;;;53.47;34.87;;;-1.90;99.90;;;;;;4897238;29;20861;-79
2024/01/13 12:09:19;;;;;;;53.43;34.00;;;-1.90;99.90;;;;;;4897012;29;20457;-78
2024/01/13 12:11:51;;;;;;;54.97;36.87;;;-2.00;99.90;;;;;;4897003;29;20528;-80
2024/01/13 12:14:27;;;;;;;55.37;34.83;;;-2.00;99.90;;;;;;4905742;29;20502;-80
2024/01/13 12:16:56;;;;;;;55.87;35.50;;;-2.00;99.90;;;;;;4897653;29;20466;-79
2024/01/13 12:19:26;;;;;;;59.23;37.10;;;-1.90;99.90;;;;;;4899023;29;21006;-79
2024/01/13 12:21:53;;;;;;;52.57;35.40;;;-1.90;99.90;;;;;;4900013;29;20522;-79
2024/01/13 12:24:26;;;;;;;58.77;37.37;;;-1.90;99.90;;;;;;4896381;29;20517;-78
2024/01/13 12:26:53;;;;;;;56.20;36.83;;;-1.80;99.90;;;;;;4898082;29;20497;-79
2024/01/13 12:29:21;;;;;;;58.00;37.33;;;-1.80;99.90;;;;;;4896794;29;20457;-79
2024/01/13 12:31:49;;;;;;;48.17;33.73;;;-1.80;99.90;;;;;;4898404;29;20449;-79